| time (UTC) | temp F | wind direction | speed knots | gust knots | rain 1hr in | rain 24hr in | rain mn in | humidity % | barometer mb |
| 20260509162004 | 52 | 118 | 2.6 | 5.2 | 0.05 | 0.20 | 0.20 | 88 | 1010.7 |
| 20260509161522 | 52 | 140 | 0.9 | 5.2 | 0.04 | 0.19 | 0.19 | 89 | 1010.7 |
| 20260509161008 | 52 | 74 | 1.7 | 5.2 | 0.05 | 0.19 | 0.19 | 89 | 1010.7 |
| 20260509160508 | 52 | 89 | 0.9 | 6.1 | 0.05 | 0.19 | 0.19 | 89 | 1010.7 |
| 20260509160024 | 52 | 75 | 1.7 | 6.1 | 0.05 | 0.19 | 0.19 | 89 | 1010.7 |
| 20260509155509 | 52 | 94 | 3.5 | 6.1 | 0.04 | 0.18 | 0.18 | 90 | 1010.7 |
| 20260509155011 | 52 | 65 | 0.9 | 7.0 | 0.05 | 0.18 | 0.18 | 89 | 1010.7 |
| 20260509154523 | 52 | 133 | 3.5 | 7.0 | 0.04 | 0.17 | 0.17 | 88 | 1010.8 |
| 20260509154010 | 52 | 83 | 0.9 | 5.2 | 0.04 | 0.17 | 0.17 | 88 | 1010.8 |
| 20260509153506 | 52 | 62 | 1.7 | 3.5 | 0.03 | 0.16 | 0.16 | 89 | 1010.8 |
| 20260509153016 | 52 | 177 | 0.9 | 3.5 | 0.03 | 0.16 | 0.16 | 89 | 1010.8 |
| 20260509152505 | 52 | 89 | 0.9 | 4.3 | 0.02 | 0.15 | 0.15 | 89 | 1010.8 |
| 20260509152004 | 52 | 91 | 0.0 | 5.2 | 0.02 | 0.15 | 0.15 | 89 | 1010.7 |
| 20260509151519 | 52 | 78 | 2.6 | 5.2 | 0.02 | 0.15 | 0.15 | 88 | 1010.8 |
| 20260509151006 | 52 | 70 | 0.9 | 5.2 | 0.02 | 0.14 | 0.14 | 89 | 1010.7 |
| 20260509150508 | 52 | 78 | 0.9 | 7.0 | 0.02 | 0.14 | 0.14 | 89 | 1010.6 |
| 20260509150027 | 52 | 86 | 0.9 | 7.0 | 0.02 | 0.14 | 0.14 | 88 | 1010.8 |
| 20260509145507 | 52 | 82 | 2.6 | 5.2 | 0.03 | 0.14 | 0.14 | 88 | 1010.8 |
| 20260509145008 | 52 | 94 | 1.7 | 5.2 | 0.02 | 0.13 | 0.13 | 89 | 1010.8 |
| 20260509144524 | 52 | 87 | 0.9 | 4.3 | 0.03 | 0.13 | 0.13 | 89 | 1010.8 |
| 20260509144009 | 51 | 85 | 0.9 | 5.2 | 0.04 | 0.13 | 0.13 | 88 | 1010.8 |
| 20260509143507 | 51 | 103 | 0.9 | 5.2 | 0.04 | 0.13 | 0.13 | 89 | 1010.9 |
| 20260509143028 | 51 | 88 | 1.7 | 5.2 | 0.05 | 0.13 | 0.13 | 89 | 1010.9 |
| 20260509142507 | 51 | 108 | 1.7 | 5.2 | 0.05 | 0.13 | 0.13 | 89 | 1010.8 |
| 20260509142009 | 51 | 78 | 1.7 | 4.3 | 0.05 | 0.13 | 0.13 | 90 | 1010.9 |
| 20260509141531 | 51 | 82 | 0.9 | 4.3 | 0.06 | 0.13 | 0.13 | 90 | 1010.9 |
| 20260509141008 | 51 | 90 | 1.7 | 5.2 | 0.05 | 0.12 | 0.12 | 90 | 1010.9 |
| 20260509140503 | 51 | 91 | 1.7 | 5.2 | 0.05 | 0.12 | 0.12 | 90 | 1011.0 |
| 20260509140022 | 51 | 84 | 3.5 | 5.2 | 0.05 | 0.12 | 0.12 | 89 | 1011.0 |
| 20260509135507 | 51 | 95 | 2.6 | 4.3 | 0.04 | 0.11 | 0.11 | 89 | 1010.9 |
| 20260509135009 | 51 | 77 | 0.9 | 5.2 | 0.05 | 0.11 | 0.11 | 90 | 1010.9 |
| 20260509134525 | 51 | 27 | 2.6 | 7.8 | 0.04 | 0.10 | 0.10 | 89 | 1011.0 |
| 20260509134007 | 51 | 90 | 3.5 | 7.0 | 0.04 | 0.09 | 0.09 | 89 | 1011.0 |
| 20260509133508 | 51 | 65 | 0.0 | 7.8 | 0.04 | 0.09 | 0.09 | 89 | 1011.0 |
| 20260509133026 | 51 | 86 | 3.5 | 7.8 | 0.03 | 0.08 | 0.08 | 89 | 1011.0 |
| 20260509132512 | 51 | 79 | 0.9 | 5.2 | 0.04 | 0.08 | 0.08 | 89 | 1011.0 |
| 20260509132008 | 51 | 99 | 2.6 | 4.3 | 0.04 | 0.08 | 0.08 | 90 | 1011.0 |
| 20260509131526 | 50 | 86 | 1.7 | 4.3 | 0.03 | 0.07 | 0.07 | 90 | 1011.0 |
| 20260509131007 | 50 | 30 | 0.9 | 3.5 | 0.03 | 0.07 | 0.07 | 90 | 1011.1 |
| 20260509130507 | 50 | 101 | 0.9 | 2.6 | 0.03 | 0.07 | 0.07 | 90 | 1011.1 |
| 20260509130021 | 50 | 65 | 0.9 | 2.6 | 0.04 | 0.07 | 0.07 | 90 | 1011.1 |
| 20260509125507 | 50 | 65 | 0.0 | 4.3 | 0.04 | 0.07 | 0.07 | 90 | 1011.2 |
| 20260509125012 | 50 | 78 | 0.9 | 4.3 | 0.03 | 0.06 | 0.06 | 89 | 1011.2 |
| 20260509124534 | 50 | 72 | 0.0 | 4.3 | 0.03 | 0.06 | 0.06 | 89 | 1011.2 |
| 20260509124012 | 50 | 103 | 0.9 | 4.3 | 0.02 | 0.05 | 0.05 | 89 | 1011.2 |
| 20260509123508 | 50 | 68 | 0.9 | 5.2 | 0.02 | 0.05 | 0.05 | 89 | 1011.2 |
| 20260509123040 | 50 | 95 | 1.7 | 5.2 | 0.03 | 0.05 | 0.05 | 89 | 1011.3 |
| 20260509122508 | 50 | 87 | 2.6 | 4.3 | 0.02 | 0.04 | 0.04 | 88 | 1011.3 |
| 20260509122009 | 50 | 84 | 2.6 | 4.3 | 0.02 | 0.04 | 0.04 | 88 | 1011.3 |
| 20260509121515 | 50 | 101 | 2.6 | 6.1 | 0.02 | 0.04 | 0.04 | 88 | 1011.2 |
| 20260509121006 | 50 | 91 | 0.9 | 6.1 | 0.02 | 0.04 | 0.04 | 88 | 1011.3 |
| 20260509120506 | 49 | 77 | 1.7 | 3.5 | 0.02 | 0.04 | 0.04 | 88 | 1011.2 |
| 20260509120018 | 49 | 82 | 1.7 | 3.5 | 0.01 | 0.03 | 0.03 | 88 | 1011.3 |
| 20260509115508 | 49 | 44 | 0.9 | 3.5 | 0.01 | 0.03 | 0.03 | 88 | 1011.2 |
| 20260509115011 | 49 | 45 | 0.9 | 4.3 | 0.01 | 0.03 | 0.03 | 88 | 1011.3 |
| 20260509114526 | 49 | 84 | 1.7 | 4.3 | 0.01 | 0.03 | 0.03 | 87 | 1011.3 |
| 20260509114002 | 49 | 73 | 2.6 | 3.5 | 0.01 | 0.03 | 0.03 | 87 | 1011.3 |
| 20260509113503 | 49 | 87 | 0.9 | 2.6 | 0.01 | 0.03 | 0.03 | 86 | 1011.2 |
| 20260509113003 | 49 | 91 | 0.0 | 6.1 | 0.00 | 0.02 | 0.02 | 86 | 1011.3 |
| 20260509112504 | 49 | 136 | 2.6 | 6.1 | 0.00 | 0.02 | 0.02 | 85 | 1011.2 |
| 20260509112003 | 49 | 94 | 0.0 | 6.1 | 0.00 | 0.02 | 0.02 | 85 | 1011.2 |
| 20260509111511 | 49 | 64 | 2.6 | 5.2 | 0.00 | 0.02 | 0.02 | 85 | 1011.3 |
| 20260509111007 | 49 | 73 | 1.7 | 6.1 | 0.00 | 0.02 | 0.02 | 85 | 1011.3 |
| 20260509110505 | 49 | 57 | 3.5 | 6.1 | 0.00 | 0.02 | 0.02 | 84 | 1011.2 |
| 20260509110018 | 49 | 74 | 3.5 | 5.2 | 0.00 | 0.02 | 0.02 | 84 | 1011.2 |
| 20260509105507 | 49 | 84 | 1.7 | 4.3 | 0.01 | 0.02 | 0.02 | 84 | 1011.2 |
| 20260509105007 | 49 | 84 | 1.7 | 4.3 | 0.01 | 0.02 | 0.02 | 84 | 1011.1 |
| 20260509104527 | 49 | 71 | 2.6 | 4.3 | 0.01 | 0.02 | 0.02 | 84 | 1011.1 |
| 20260509104008 | 49 | 34 | 1.7 | 5.2 | 0.01 | 0.02 | 0.02 | 85 | 1011.1 |
| 20260509103508 | 49 | 58 | 1.7 | 5.2 | 0.01 | 0.02 | 0.02 | 85 | 1011.2 |
| 20260509103004 | 49 | 67 | 0.9 | 3.5 | 0.02 | 0.02 | 0.02 | 85 | 1011.3 |
| 20260509102505 | 49 | 82 | 0.9 | 3.5 | 0.02 | 0.02 | 0.02 | 84 | 1011.3 |
| 20260509102004 | 49 | 77 | 1.7 | 2.6 | 0.02 | 0.02 | 0.02 | 84 | 1011.3 |
| 20260509101508 | 49 | 92 | 0.0 | 2.6 | 0.02 | 0.02 | 0.02 | 84 | 1011.3 |
| 20260509101003 | 50 | 30 | 0.9 | 4.3 | 0.02 | 0.02 | 0.02 | 83 | 1011.2 |
| 20260509100504 | 50 | 91 | 2.6 | 4.3 | 0.02 | 0.02 | 0.02 | 82 | 1011.4 |
| 20260509100018 | 50 | 178 | 1.7 | 4.3 | 0.02 | 0.02 | 0.02 | 82 | 1011.4 |
| 20260509095506 | 50 | 146 | 0.0 | 6.1 | 0.01 | 0.01 | 0.01 | 82 | 1011.4 |
| 20260509095004 | 50 | 112 | 1.7 | 7.8 | 0.01 | 0.01 | 0.01 | 81 | 1011.5 |
| 20260509094518 | 50 | 137 | 3.5 | 7.8 | 0.01 | 0.01 | 0.01 | 81 | 1011.6 |
| 20260509094007 | 50 | 199 | 2.6 | 11.3 | 0.01 | 0.01 | 0.01 | 81 | 1011.5 |
| 20260509093510 | 50 | 231 | 4.3 | 11.3 | 0.01 | 0.01 | 0.01 | 80 | 1011.5 |
| 20260509093023 | 49 | 143 | 3.5 | 6.1 | 0.00 | 0.00 | 0.00 | 82 | 1011.5 |
| 20260509092508 | 48 | 131 | 0.0 | 5.2 | 0.00 | 0.00 | 0.00 | 82 | 1011.5 |
| 20260509092004 | 48 | 46 | 0.0 | 5.2 | 0.00 | 0.00 | 0.00 | 85 | 1011.4 |
| 20260509091507 | 47 | 4 | 0.0 | 1.7 | 0.00 | 0.00 | 0.00 | 87 | 1011.4 |
| 20260509091003 | 46 | 3 | 0.9 | 1.7 | 0.00 | 0.00 | 0.00 | 89 | 1011.3 |
| 20260509090503 | 46 | 11 | 0.9 | 1.7 | 0.00 | 0.00 | 0.00 | 89 | 1011.2 |
| 20260509090010 | 46 | 164 | 0.0 | 1.7 | 0.00 | 0.00 | 0.00 | 89 | 1011.2 |
| 20260509085504 | 46 | 164 | 0.0 | 3.5 | 0.00 | 0.00 | 0.00 | 89 | 1011.2 |
| 20260509085004 | 46 | 205 | 2.6 | 3.5 | 0.00 | 0.00 | 0.00 | 89 | 1011.2 |
| 20260509084518 | 46 | 205 | 0.0 | 2.6 | 0.00 | 0.00 | 0.00 | 89 | 1011.1 |
| 20260509084005 | 46 | 205 | 0.9 | 2.6 | 0.00 | 0.00 | 0.00 | 89 | 1011.0 |
| 20260509083503 | 46 | 15 | 1.7 | 3.5 | 0.00 | 0.00 | 0.00 | 89 | 1010.8 |
| 20260509083033 | 46 | 213 | 1.7 | 3.5 | 0.00 | 0.00 | 0.00 | 89 | 1010.9 |
| 20260509082508 | 46 | 51 | 0.0 | 1.7 | 0.00 | 0.00 | 0.00 | 89 | 1010.7 |
| 20260509082007 | 46 | 160 | 0.0 | 0.0 | 0.00 | 0.00 | 0.00 | 89 | 1010.8 |
| 20260509081524 | 46 | 76 | 0.0 | 0.0 | 0.00 | 0.00 | 0.00 | 89 | 1010.6 |
| 20260509081009 | 46 | 76 | 0.0 | 1.7 | 0.00 | 0.00 | 0.00 | 89 | 1010.7 |
| 20260509080504 | 46 | 76 | 0.0 | 1.7 | 0.00 | 0.00 | 0.00 | 89 | 1010.6 |
| 20260509080010 | 46 | 76 | 0.0 | 1.7 | 0.00 | 0.00 | 0.00 | 89 | 1010.7 |
| 20260509075503 | 46 | 76 | 0.0 | 1.7 | 0.00 | 0.00 | 0.00 | 89 | 1010.7 |
| 20260509075003 | 46 | 76 | 0.0 | 0.9 | 0.00 | 0.00 | 0.00 | 89 | 1010.6 |
| 20260509074514 | 46 | 76 | 0.0 | 0.9 | 0.00 | 0.00 | 0.00 | 89 | 1010.6 |
| 20260509074007 | 46 | 76 | 0.0 | 1.7 | 0.00 | 0.00 | 0.00 | 88 | 1010.6 |
| 20260509073504 | 46 | 91 | 0.0 | 1.7 | 0.00 | 0.00 | 0.00 | 88 | 1010.6 |
| 20260509073020 | 46 | 147 | 0.0 | 2.6 | 0.00 | 0.00 | 0.00 | 88 | 1010.5 |
| 20260509072507 | 46 | 236 | 0.0 | 2.6 | 0.00 | 0.00 | 0.00 | 88 | 1010.5 |
| 20260509072010 | 46 | 172 | 0.9 | 2.6 | 0.00 | 0.00 | 0.00 | 88 | 1010.7 |
| 20260509071523 | 45 | 153 | 1.7 | 3.5 | 0.00 | 0.00 | 0.00 | 88 | 1010.6 |
| 20260509071008 | 45 | 217 | 2.6 | 3.5 | 0.00 | 0.00 | 0.00 | 88 | 1010.5 |
| 20260509070509 | 45 | 211 | 0.9 | 2.6 | 0.00 | 0.00 | 0.00 | 88 | 1010.5 |
| 20260509070027 | 46 | 178 | 0.9 | 0.9 | 0.00 | 0.00 | 0.00 | 88 | 1010.5 |
| 20260509065506 | 46 | 223 | 0.0 | 0.0 | 0.00 | 0.00 | 0.00 | 87 | 1010.5 |
| 20260509065007 | 46 | 223 | 0.0 | 0.0 | 0.00 | 0.00 | 0.00 | 87 | 1010.6 |
| 20260509064520 | 46 | 223 | 0.0 | 1.7 | 0.00 | 0.00 | 0.00 | 87 | 1010.7 |
| 20260509064005 | 46 | 223 | 0.0 | 1.7 | 0.00 | 0.00 | 0.00 | 86 | 1010.8 |
| 20260509063504 | 46 | 178 | 0.0 | 1.7 | 0.00 | 0.00 | 0.00 | 86 | 1011.1 |
| 20260509063017 | 46 | 305 | 0.0 | 1.7 | 0.00 | 0.00 | 0.00 | 86 | 1011.1 |
| 20260509062504 | 46 | 199 | 0.9 | 1.7 | 0.00 | 0.00 | 0.00 | 86 | 1011.3 |
| 20260509062005 | 46 | 4 | 0.0 | 1.7 | 0.00 | 0.00 | 0.00 | 87 | 1011.2 |
| 20260509061536 | 46 | 340 | 0.9 | 3.5 | 0.00 | 0.00 | 0.00 | 87 | 1011.2 |
| 20260509061009 | 46 | 360 | 1.7 | 3.5 | 0.00 | 0.00 | 0.00 | 87 | 1011.3 |
| 20260509060507 | 47 | 146 | 1.7 | 3.5 | 0.00 | 0.00 | 0.00 | 87 | 1011.4 |
| 20260509060026 | 46 | 208 | 0.9 | 2.6 | 0.00 | 0.00 | 0.00 | 87 | 1011.6 |
| 20260509055511 | 47 | 214 | 0.0 | 2.6 | 0.00 | 0.00 | 0.00 | 86 | 1011.7 |
| 20260509055010 | 47 | 166 | 0.0 | 1.7 | 0.00 | 0.00 | 0.00 | 86 | 1011.8 |
| 20260509054510 | 47 | 244 | 0.0 | 0.0 | 0.00 | 0.00 | 0.00 | 86 | 1011.9 |
| 20260509054005 | 47 | 9 | 0.0 | 0.0 | 0.00 | 0.00 | 0.00 | 86 | 1011.8 |
| 20260509053505 | 47 | 9 | 0.0 | 0.0 | 0.00 | 0.00 | 0.00 | 86 | 1011.9 |
| 20260509053028 | 47 | 9 | 0.0 | 0.0 | 0.00 | 0.00 | 0.00 | 86 | 1011.9 |
| 20260509052504 | 47 | 9 | 0.0 | 0.0 | 0.00 | 0.00 | 0.00 | 86 | 1011.9 |
| 20260509052004 | 47 | 339 | 0.0 | 0.0 | 0.00 | 0.00 | 0.00 | 86 | 1012.0 |
| 20260509051521 | 47 | 334 | 0.0 | 0.0 | 0.00 | 0.00 | 0.00 | 86 | 1012.1 |
| 20260509051007 | 47 | 15 | 0.0 | 0.0 | 0.00 | 0.00 | 0.00 | 86 | 1012.2 |
| 20260509050507 | 47 | 15 | 0.0 | 0.0 | 0.00 | 0.00 | 0.00 | 86 | 1012.2 |
| 20260509050025 | 47 | 15 | 0.0 | 0.0 | 0.00 | 0.00 | 0.00 | 86 | 1012.2 |
| 20260509045509 | 47 | 15 | 0.0 | 0.0 | 0.00 | 0.00 | 0.00 | 86 | 1012.2 |
| 20260509045007 | 47 | 15 | 0.0 | 0.0 | 0.00 | 0.00 | 0.00 | 86 | 1012.2 |
| 20260509044530 | 47 | 15 | 0.0 | 0.0 | 0.00 | 0.00 | 0.00 | 87 | 1012.2 |
| 20260509044007 | 47 | 15 | 0.0 | 0.0 | 0.00 | 0.00 | 0.00 | 86 | 1012.2 |
| 20260509043509 | 47 | 15 | 0.0 | 0.0 | 0.00 | 0.00 | 0.00 | 86 | 1012.3 |
| 20260509043010 | 47 | 15 | 0.0 | 0.0 | 0.00 | 0.00 | 0.00 | 86 | 1012.2 |
| 20260509042506 | 47 | 41 | 0.0 | 0.0 | 0.00 | 0.00 | 0.00 | 86 | 1012.3 |
| 20260509042004 | 47 | 46 | 0.0 | 0.0 | 0.00 | 0.00 | 0.00 | 86 | 1012.4 |
| 20260509041518 | 47 | 59 | 0.0 | 0.0 | 0.00 | 0.00 | 0.00 | 85 | 1012.4 |
| 20260509041004 | 47 | 80 | 0.0 | 0.0 | 0.00 | 0.00 | 0.00 | 85 | 1012.5 |
| 20260509040503 | 47 | 19 | 0.0 | 0.0 | 0.00 | 0.00 | 0.00 | 85 | 1012.6 |
| 20260509040021 | 47 | 332 | 0.0 | 0.0 | 0.00 | 0.00 | 0.00 | 85 | 1012.5 |
| 20260509035509 | 47 | 332 | 0.0 | 0.0 | 0.00 | 0.00 | 0.00 | 85 | 1012.6 |
| 20260509035009 | 48 | 284 | 0.0 | 0.0 | 0.00 | 0.00 | 0.00 | 85 | 1012.6 |
| 20260509034526 | 48 | 284 | 0.0 | 0.0 | 0.00 | 0.00 | 0.00 | 85 | 1012.6 |
| 20260509034006 | 47 | 284 | 0.0 | 0.0 | 0.00 | 0.00 | 0.00 | 84 | 1012.7 |
| 20260509033510 | 47 | 280 | 0.0 | 1.7 | 0.00 | 0.00 | 0.00 | 85 | 1012.7 |
| 20260509033026 | 47 | 280 | 0.0 | 1.7 | 0.00 | 0.00 | 0.00 | 85 | 1012.5 |
| 20260509032511 | 47 | 357 | 0.0 | 0.0 | 0.00 | 0.00 | 0.00 | 86 | 1012.5 |
| 20260509032006 | 47 | 357 | 0.0 | 0.0 | 0.00 | 0.00 | 0.00 | 86 | 1012.5 |
| 20260509031518 | 47 | 357 | 0.0 | 0.0 | 0.00 | 0.00 | 0.00 | 85 | 1012.4 |
| 20260509031004 | 47 | 357 | 0.0 | 0.0 | 0.00 | 0.00 | 0.00 | 85 | 1012.4 |
| 20260509030511 | 47 | 357 | 0.0 | 0.0 | 0.00 | 0.00 | 0.00 | 86 | 1012.4 |
| 20260509030023 | 47 | 196 | 0.0 | 0.0 | 0.00 | 0.00 | 0.00 | 85 | 1012.4 |
| 20260509025503 | 47 | 195 | 0.0 | 0.0 | 0.00 | 0.00 | 0.00 | 85 | 1012.4 |
| 20260509025009 | 46 | 195 | 0.0 | 0.0 | 0.00 | 0.00 | 0.00 | 85 | 1012.5 |
| 20260509024526 | 46 | 195 | 0.0 | 0.0 | 0.00 | 0.00 | 0.00 | 85 | 1012.5 |
| 20260509024009 | 46 | 195 | 0.0 | 0.0 | 0.00 | 0.00 | 0.00 | 85 | 1012.6 |
| 20260509023507 | 46 | 195 | 0.0 | 0.0 | 0.00 | 0.00 | 0.00 | 85 | 1012.5 |
| 20260509023027 | 46 | 195 | 0.0 | 0.0 | 0.00 | 0.00 | 0.00 | 85 | 1012.5 |
| 20260509022515 | 46 | 194 | 0.0 | 1.7 | 0.00 | 0.00 | 0.00 | 85 | 1012.5 |
| 20260509022008 | 46 | 191 | 0.0 | 1.7 | 0.00 | 0.00 | 0.00 | 84 | 1012.5 |
| 20260509021530 | 46 | 192 | 0.0 | 2.6 | 0.00 | 0.00 | 0.00 | 84 | 1012.5 |
| 20260509021003 | 47 | 207 | 0.9 | 2.6 | 0.00 | 0.00 | 0.00 | 84 | 1012.5 |
| 20260509020507 | 47 | 205 | 0.0 | 1.7 | 0.00 | 0.00 | 0.00 | 83 | 1012.5 |
| 20260509020021 | 47 | 243 | 0.9 | 1.7 | 0.00 | 0.00 | 0.00 | 83 | 1012.3 |
| 20260509015504 | 48 | 184 | 0.0 | 0.0 | 0.00 | 0.00 | 0.00 | 81 | 1012.4 |
| 20260509015006 | 48 | 184 | 0.0 | 0.0 | 0.00 | 0.00 | 0.00 | 81 | 1012.3 |
| 20260509014521 | 49 | 184 | 0.0 | 0.0 | 0.00 | 0.00 | 0.00 | 81 | 1012.2 |
| 20260509014012 | 49 | 184 | 0.0 | 0.0 | 0.00 | 0.00 | 0.00 | 81 | 1012.3 |
| 20260509013511 | 49 | 184 | 0.0 | 0.0 | 0.00 | 0.00 | 0.00 | 81 | 1012.4 |
| 20260509013024 | 49 | 184 | 0.0 | 0.0 | 0.00 | 0.00 | 0.00 | 81 | 1012.4 |
| 20260509012508 | 49 | 184 | 0.0 | 0.0 | 0.00 | 0.00 | 0.00 | 81 | 1012.3 |
| 20260509012007 | 49 | 184 | 0.0 | 0.0 | 0.00 | 0.00 | 0.00 | 81 | 1012.4 |
| 20260509011528 | 49 | 184 | 0.0 | 0.0 | 0.00 | 0.00 | 0.00 | 80 | 1012.5 |
| 20260509011007 | 49 | 184 | 0.0 | 0.0 | 0.00 | 0.00 | 0.00 | 80 | 1012.4 |
| 20260509010508 | 49 | 184 | 0.0 | 0.0 | 0.00 | 0.00 | 0.00 | 80 | 1012.3 |
| 20260509010028 | 49 | 185 | 0.0 | 0.0 | 0.00 | 0.00 | 0.00 | 79 | 1012.4 |
| 20260509005508 | 49 | 189 | 0.0 | 0.0 | 0.00 | 0.00 | 0.00 | 79 | 1012.2 |
| 20260509005003 | 49 | 189 | 0.0 | 0.0 | 0.00 | 0.00 | 0.00 | 78 | 1012.3 |
| 20260509004532 | 49 | 190 | 0.0 | 0.0 | 0.00 | 0.00 | 0.00 | 79 | 1012.3 |
| 20260509004006 | 50 | 191 | 0.0 | 0.0 | 0.00 | 0.00 | 0.00 | 79 | 1012.2 |
| 20260509003507 | 50 | 189 | 0.0 | 0.0 | 0.00 | 0.00 | 0.00 | 78 | 1012.2 |
| 20260509003006 | 50 | 272 | 0.0 | 0.0 | 0.00 | 0.00 | 0.00 | 76 | 1012.2 |
| 20260509002503 | 50 | 272 | 0.0 | 0.0 | 0.00 | 0.00 | 0.00 | 76 | 1012.1 |
| 20260509002005 | 51 | 272 | 0.0 | 0.0 | 0.00 | 0.00 | 0.00 | 76 | 1012.1 |
| 20260509001508 | 51 | 289 | 0.0 | 0.0 | 0.00 | 0.00 | 0.00 | 75 | 1011.9 |
| 20260509001003 | 52 | 289 | 0.0 | 0.0 | 0.00 | 0.00 | 0.00 | 74 | 1012.0 |
| 20260509000507 | 52 | 289 | 0.0 | 0.0 | 0.00 | 0.00 | 0.00 | 70 | 1011.9 |
| 20260509000014 | 52 | 289 | 0.0 | 0.0 | 0.00 | 0.00 | 0.00 | 72 | 1012.0 |
| 20260508235506 | 53 | 288 | 0.0 | 0.0 | 0.00 | 0.00 | 0.00 | 72 | 1012.1 |
| 20260508235004 | 53 | 288 | 0.0 | 0.0 | 0.00 | 0.00 | 0.00 | 73 | 1012.1 |
| 20260508234519 | 53 | 288 | 0.0 | 0.0 | 0.00 | 0.00 | 0.00 | 70 | 1012.1 |
| 20260508234003 | 53 | 288 | 0.0 | 0.0 | 0.00 | 0.00 | 0.00 | 71 | 1012.2 |
| 20260508233508 | 53 | 288 | 0.0 | 0.0 | 0.00 | 0.00 | 0.00 | 70 | 1012.1 |
| 20260508233003 | 54 | 288 | 0.0 | 0.0 | 0.00 | 0.00 | 0.00 | 70 | 1012.0 |
| 20260508232504 | 54 | 288 | 0.0 | 0.0 | 0.00 | 0.00 | 0.00 | 67 | 1011.9 |
| 20260508232006 | 54 | 297 | 0.0 | 0.9 | 0.00 | 0.00 | 0.00 | 64 | 1011.8 |
| 20260508231510 | 54 | 353 | 0.0 | 1.7 | 0.00 | 0.00 | 0.00 | 65 | 1011.9 |
| 20260508231005 | 55 | 353 | 0.9 | 1.7 | 0.00 | 0.00 | 0.00 | 62 | 1011.9 |
| 20260508230504 | 55 | 229 | 0.0 | 0.0 | 0.00 | 0.00 | 0.00 | 61 | 1011.9 |
| 20260508230010 | 55 | 229 | 0.0 | 0.9 | 0.00 | 0.00 | 0.00 | 60 | 1011.9 |
| 20260508225503 | 55 | 229 | 0.0 | 2.6 | 0.00 | 0.00 | 0.00 | 59 | 1012.0 |
| 20260508225003 | 55 | 235 | 0.9 | 2.6 | 0.00 | 0.00 | 0.00 | 59 | 1011.9 |
| 20260508224526 | 55 | 219 | 0.0 | 3.5 | 0.00 | 0.00 | 0.00 | 59 | 1011.9 |
| 20260508224003 | 55 | 219 | 0.0 | 3.5 | 0.00 | 0.00 | 0.00 | 59 | 1011.9 |
| 20260508223507 | 55 | 143 | 1.7 | 4.3 | 0.00 | 0.00 | 0.00 | 57 | 1011.9 |
| 20260508223036 | 55 | 201 | 2.6 | 3.5 | 0.00 | 0.00 | 0.00 | 58 | 1011.9 |
| 20260508222507 | 55 | 200 | 1.7 | 6.1 | 0.00 | 0.00 | 0.00 | 58 | 1011.9 |
| 20260508222006 | 56 | 154 | 2.6 | 6.1 | 0.00 | 0.00 | 0.00 | 56 | 1011.8 |
| 20260508221507 | 56 | 184 | 0.9 | 6.1 | 0.00 | 0.00 | 0.00 | 58 | 1011.8 |
| 20260508221003 | 55 | 207 | 1.7 | 6.1 | 0.00 | 0.00 | 0.00 | 59 | 1011.9 |
| 20260508220503 | 55 | 124 | 0.9 | 2.6 | 0.00 | 0.00 | 0.00 | 60 | 1011.9 |
| 20260508220009 | 54 | 195 | 0.0 | 2.6 | 0.00 | 0.00 | 0.00 | 61 | 1012.0 |
| 20260508215507 | 54 | 113 | 0.9 | 5.2 | 0.00 | 0.00 | 0.00 | 60 | 1012.1 |
| 20260508215005 | 54 | 149 | 0.0 | 5.2 | 0.00 | 0.00 | 0.00 | 62 | 1012.2 |
| 20260508214516 | 54 | 60 | 1.7 | 3.5 | 0.00 | 0.00 | 0.00 | 62 | 1012.3 |
| 20260508214002 | 54 | 170 | 1.7 | 3.5 | 0.00 | 0.00 | 0.00 | 62 | 1012.4 |
| 20260508213504 | 54 | 147 | 0.9 | 6.1 | 0.00 | 0.00 | 0.00 | 62 | 1012.5 |
| 20260508213019 | 54 | 127 | 2.6 | 6.1 | 0.00 | 0.00 | 0.00 | 62 | 1012.5 |
| 20260508212504 | 54 | 109 | 0.0 | 5.2 | 0.00 | 0.00 | 0.00 | 64 | 1012.4 |
| 20260508212010 | 54 | 142 | 0.9 | 2.6 | 0.00 | 0.00 | 0.00 | 63 | 1012.4 |
| 20260508211524 | 54 | 84 | 0.0 | 4.3 | 0.00 | 0.00 | 0.00 | 63 | 1012.4 |
| 20260508211003 | 54 | 143 | 1.7 | 4.3 | 0.00 | 0.00 | 0.00 | 64 | 1012.5 |
| 20260508210503 | 54 | 164 | 1.7 | 6.1 | 0.00 | 0.00 | 0.00 | 62 | 1012.6 |
| 20260508210008 | 54 | 135 | 1.7 | 6.1 | 0.00 | 0.00 | 0.00 | 63 | 1012.7 |
| 20260508205503 | 54 | 181 | 1.7 | 6.1 | 0.00 | 0.00 | 0.00 | 62 | 1012.8 |
| 20260508205004 | 54 | 162 | 2.6 | 8.7 | 0.00 | 0.00 | 0.00 | 62 | 1012.8 |
| 20260508204514 | 54 | 199 | 4.3 | 8.7 | 0.00 | 0.00 | 0.00 | 60 | 1012.8 |
| 20260508204006 | 54 | 169 | 3.5 | 7.0 | 0.00 | 0.00 | 0.00 | 60 | 1012.8 |
| 20260508203504 | 55 | 179 | 3.5 | 7.0 | 0.00 | 0.00 | 0.00 | 59 | 1012.9 |
| 20260508203025 | 55 | 108 | 3.5 | 7.8 | 0.00 | 0.00 | 0.00 | 58 | 1012.9 |
| 20260508202504 | 55 | 195 | 3.5 | 9.6 | 0.00 | 0.00 | 0.00 | 58 | 1012.9 |
| 20260508202007 | 55 | 195 | 5.2 | 10.4 | 0.00 | 0.00 | 0.00 | 57 | 1012.9 |
| 20260508201524 | 55 | 129 | 4.3 | 10.4 | 0.00 | 0.00 | 0.00 | 57 | 1012.8 |
| 20260508201011 | 55 | 134 | 1.7 | 9.6 | 0.00 | 0.00 | 0.00 | 58 | 1012.8 |
| 20260508200507 | 55 | 153 | 4.3 | 11.3 | 0.00 | 0.00 | 0.00 | 57 | 1012.7 |
| 20260508200026 | 55 | 87 | 5.2 | 11.3 | 0.00 | 0.00 | 0.00 | 57 | 1012.8 |
| 20260508195506 | 56 | 229 | 3.5 | 13.0 | 0.00 | 0.00 | 0.00 | 57 | 1012.9 |
| 20260508195005 | 56 | 165 | 3.5 | 13.0 | 0.00 | 0.00 | 0.00 | 55 | 1012.8 |
| 20260508194512 | 56 | 185 | 6.1 | 17.4 | 0.00 | 0.00 | 0.00 | 54 | 1012.9 |
| 20260508194002 | 56 | 152 | 7.0 | 17.4 | 0.00 | 0.00 | 0.00 | 54 | 1012.9 |
| 20260508193502 | 56 | 165 | 9.6 | 14.8 | 0.00 | 0.00 | 0.00 | 53 | 1013.0 |
| 20260508193017 | 56 | 187 | 4.3 | 9.6 | 0.00 | 0.00 | 0.00 | 54 | 1012.9 |
| 20260508192504 | 56 | 115 | 5.2 | 10.4 | 0.00 | 0.00 | 0.00 | 54 | 1013.0 |
| 20260508192004 | 56 | 226 | 4.3 | 11.3 | 0.00 | 0.00 | 0.00 | 55 | 1013.0 |
| 20260508191534 | 56 | 159 | 7.0 | 13.9 | 0.00 | 0.00 | 0.00 | 54 | 1013.1 |
| 20260508191008 | 56 | 141 | 7.0 | 16.5 | 0.00 | 0.00 | 0.00 | 53 | 1013.1 |
| 20260508190504 | 56 | 212 | 7.8 | 16.5 | 0.00 | 0.00 | 0.00 | 52 | 1013.0 |
| 20260508190031 | 57 | 241 | 5.2 | 12.2 | 0.00 | 0.00 | 0.00 | 51 | 1013.0 |
| 20260508185506 | 57 | 141 | 4.3 | 14.8 | 0.00 | 0.00 | 0.00 | 51 | 1012.9 |
| 20260508185010 | 58 | 153 | 7.0 | 14.8 | 0.00 | 0.00 | 0.00 | 50 | 1012.9 |
| 20260508184510 | 58 | 219 | 3.5 | 17.4 | 0.00 | 0.00 | 0.00 | 51 | 1012.8 |
| 20260508184005 | 58 | 146 | 11.3 | 17.4 | 0.00 | 0.00 | 0.00 | 49 | 1012.8 |
| 20260508183504 | 58 | 107 | 7.0 | 16.5 | 0.00 | 0.00 | 0.00 | 49 | 1012.7 |
| 20260508183015 | 58 | 117 | 7.0 | 16.5 | 0.00 | 0.00 | 0.00 | 48 | 1012.8 |
| 20260508182508 | 59 | 203 | 7.8 | 15.6 | 0.00 | 0.00 | 0.00 | 46 | 1012.7 |
| 20260508182003 | 60 | 179 | 7.8 | 14.8 | 0.00 | 0.00 | 0.00 | 49 | 1012.7 |
| 20260508181517 | 59 | 184 | 7.0 | 13.0 | 0.00 | 0.00 | 0.00 | 49 | 1012.7 |
| 20260508181004 | 58 | 115 | 3.5 | 13.0 | 0.00 | 0.00 | 0.00 | 50 | 1012.8 |
| 20260508180508 | 57 | 137 | 4.3 | 13.0 | 0.00 | 0.00 | 0.00 | 50 | 1012.8 |
| 20260508180026 | 57 | 140 | 5.2 | 12.2 | 0.00 | 0.00 | 0.00 | 50 | 1012.9 |
| 20260508175508 | 57 | 136 | 3.5 | 13.9 | 0.00 | 0.00 | 0.00 | 51 | 1013.0 |
| 20260508175010 | 56 | 214 | 3.5 | 13.9 | 0.00 | 0.00 | 0.00 | 50 | 1013.1 |
| 20260508174526 | 57 | 154 | 7.0 | 13.0 | 0.00 | 0.00 | 0.00 | 49 | 1013.2 |
| 20260508174008 | 57 | 158 | 7.8 | 15.6 | 0.00 | 0.00 | 0.00 | 47 | 1013.1 |
| 20260508173503 | 57 | 159 | 7.8 | 15.6 | 0.00 | 0.00 | 0.00 | 46 | 1013.0 |
| 20260508173010 | 58 | 169 | 8.7 | 13.9 | 0.00 | 0.00 | 0.00 | 44 | 1013.0 |
| 20260508172506 | 59 | 191 | 3.5 | 14.8 | 0.00 | 0.00 | 0.00 | 45 | 1013.1 |
| 20260508172008 | 59 | 221 | 6.1 | 14.8 | 0.00 | 0.00 | 0.00 | 43 | 1013.1 |
| 20260508171516 | 59 | 191 | 4.3 | 13.9 | 0.00 | 0.00 | 0.00 | 45 | 1013.0 |
| 20260508171004 | 58 | 245 | 7.0 | 13.9 | 0.00 | 0.00 | 0.00 | 46 | 1013.2 |
| 20260508170508 | 58 | 190 | 7.8 | 13.9 | 0.00 | 0.00 | 0.00 | 44 | 1013.2 |
| 20260508170024 | 58 | 180 | 6.1 | 13.9 | 0.00 | 0.00 | 0.00 | 47 | 1013.3 |
| 20260508165507 | 58 | 113 | 3.5 | 17.4 | 0.00 | 0.00 | 0.00 | 46 | 1013.3 |
| 20260508165007 | 58 | 146 | 7.8 | 19.1 | 0.00 | 0.00 | 0.00 | 45 | 1013.3 |
| 20260508164525 | 58 | 182 | 6.1 | 19.1 | 0.00 | 0.00 | 0.00 | 47 | 1013.5 |
| 20260508164008 | 58 | 195 | 5.2 | 17.4 | 0.00 | 0.00 | 0.00 | 48 | 1013.5 |
| 20260508163510 | 58 | 89 | 7.8 | 17.4 | 0.00 | 0.00 | 0.00 | 49 | 1013.4 |
| 20260508163029 | 57 | 158 | 6.1 | 19.1 | 0.00 | 0.00 | 0.00 | 50 | 1013.7 |
| 20260508162504 | 57 | 206 | 10.4 | 19.1 | 0.00 | 0.00 | 0.00 | 48 | 1013.7 |